createdAt,value
2019-05-20T00:00:49.779Z,5.90
2019-05-20T00:03:18.374Z,6.10
2019-05-20T00:05:47.301Z,5.63
2019-05-20T00:08:16.116Z,5.57
2019-05-20T00:10:45.177Z,6.30
2019-05-20T00:13:13.849Z,6.67
2019-05-20T00:15:42.436Z,7.13
2019-05-20T00:18:11.030Z,6.27
2019-05-20T00:20:39.648Z,7.03
2019-05-20T00:23:08.235Z,6.37
2019-05-20T00:25:36.803Z,6.70
2019-05-20T00:28:05.517Z,7.33
2019-05-20T00:30:34.247Z,5.70
2019-05-20T00:33:02.832Z,7.00
2019-05-20T00:35:31.467Z,7.20
2019-05-20T00:38:00.049Z,7.13
2019-05-20T00:40:28.647Z,6.60
2019-05-20T00:42:57.315Z,7.50
2019-05-20T00:45:26.046Z,6.87
2019-05-20T00:47:54.627Z,7.00
2019-05-20T00:50:23.309Z,6.70
2019-05-20T00:52:52.036Z,7.57
2019-05-20T00:55:25.969Z,7.57
2019-05-20T00:57:54.762Z,6.50
2019-05-20T01:00:24.192Z,6.30
2019-05-20T01:02:57.025Z,6.17
2019-05-20T01:05:23.535Z,6.33
2019-05-20T01:07:52.123Z,7.10
2019-05-20T01:10:20.864Z,8.10
2019-05-20T01:12:49.497Z,6.77
2019-05-20T01:15:18.549Z,7.17
2019-05-20T01:17:47.139Z,6.43
2019-05-20T01:20:16.120Z,6.97
2019-05-20T01:22:44.704Z,7.57
2019-05-20T01:25:13.839Z,7.70
2019-05-20T01:27:42.437Z,6.57
2019-05-20T01:30:11.859Z,7.77
2019-05-20T01:32:40.516Z,8.10
2019-05-20T01:35:09.689Z,7.50
2019-05-20T01:37:38.254Z,7.20
2019-05-20T01:40:07.436Z,6.63
2019-05-20T01:42:36.087Z,6.77
2019-05-20T01:45:05.922Z,8.10
2019-05-20T01:47:34.508Z,7.20
2019-05-20T01:50:04.001Z,7.40
2019-05-20T01:52:32.590Z,7.57
2019-05-20T01:55:01.188Z,8.27
2019-05-20T01:57:29.816Z,6.90
2019-05-20T01:59:58.394Z,7.47
2019-05-20T02:02:26.976Z,8.67
2019-05-20T02:04:55.599Z,8.27
2019-05-20T02:07:24.269Z,7.67
2019-05-20T02:09:52.940Z,7.73
2019-05-20T02:12:21.576Z,8.07
2019-05-20T02:14:51.861Z,7.93
2019-05-20T02:17:20.410Z,6.63
2019-05-20T02:19:49.154Z,6.97
2019-05-20T02:22:17.738Z,8.20
2019-05-20T02:24:46.329Z,7.07
2019-05-20T02:27:14.958Z,7.60
2019-05-20T02:29:43.561Z,8.47
2019-05-20T02:32:12.144Z,7.57
2019-05-20T02:34:40.833Z,8.23
2019-05-20T02:37:09.481Z,7.17
2019-05-20T02:39:38.075Z,8.70
2019-05-20T02:42:06.881Z,7.10
2019-05-20T02:44:35.535Z,6.77
2019-05-20T02:47:04.204Z,7.67
2019-05-20T02:49:32.886Z,8.20
2019-05-20T02:52:01.503Z,8.20
2019-05-20T02:54:30.054Z,7.90
2019-05-20T02:56:58.810Z,7.33
2019-05-20T02:59:27.401Z,8.00
2019-05-20T03:01:55.989Z,7.80
2019-05-20T03:04:24.619Z,7.27
2019-05-20T03:06:53.193Z,6.60
2019-05-20T03:09:21.779Z,7.40
2019-05-20T03:11:50.428Z,6.97
2019-05-20T03:14:19.016Z,7.50
2019-05-20T03:16:47.609Z,6.70
2019-05-20T03:19:16.244Z,7.90
2019-05-20T03:21:44.904Z,8.20
2019-05-20T03:24:13.658Z,8.53
2019-05-20T03:26:42.361Z,7.53
2019-05-20T03:29:11.014Z,6.80
2019-05-20T03:31:39.597Z,7.53
2019-05-20T03:34:08.307Z,8.50
2019-05-20T03:36:36.885Z,9.20
2019-05-20T03:39:06.828Z,7.50
2019-05-20T03:41:35.457Z,7.50
2019-05-20T03:44:04.133Z,8.37
2019-05-20T03:46:32.719Z,9.40
2019-05-20T03:49:01.418Z,8.50
2019-05-20T03:51:30.012Z,8.93
2019-05-20T03:53:58.610Z,8.27
2019-05-20T03:56:27.244Z,6.60
2019-05-20T03:58:55.813Z,7.37
2019-05-20T04:01:24.395Z,7.90
2019-05-20T04:03:53.034Z,7.60
2019-05-20T04:06:21.608Z,8.77
2019-05-20T04:08:50.269Z,8.17
2019-05-20T04:11:18.886Z,8.80
2019-05-20T04:13:47.488Z,9.47
2019-05-20T04:16:16.078Z,8.10
2019-05-20T04:18:44.703Z,8.53
2019-05-20T04:21:13.294Z,8.50
2019-05-20T04:23:41.971Z,8.23
2019-05-20T04:26:10.634Z,8.07
2019-05-20T04:28:39.221Z,8.97
2019-05-20T04:31:07.814Z,7.17
2019-05-20T04:33:36.433Z,8.40
2019-05-20T04:36:05.022Z,8.10
2019-05-20T04:38:33.619Z,8.10
2019-05-20T04:41:02.244Z,8.20
2019-05-20T04:43:30.824Z,8.90
2019-05-20T04:45:59.867Z,7.90
2019-05-20T04:48:28.484Z,8.30
2019-05-20T04:50:57.133Z,8.00
2019-05-20T04:53:25.714Z,8.40
2019-05-20T04:55:54.426Z,8.60
2019-05-20T04:58:23.002Z,8.30
2019-05-20T05:00:53.621Z,8.50
2019-05-20T05:03:23.375Z,8.70
2019-05-20T05:05:52.260Z,7.40
2019-05-20T05:08:21.692Z,8.33
2019-05-20T05:10:50.655Z,10.10
2019-05-20T05:13:19.673Z,13.50
2019-05-20T05:15:48.595Z,14.60
2019-05-20T05:18:17.351Z,10.50
2019-05-20T05:20:46.182Z,10.90
2019-05-20T05:23:14.829Z,13.03
2019-05-20T05:25:43.448Z,13.03
2019-05-20T05:28:12.299Z,9.10
2019-05-20T05:30:41.295Z,12.87
2019-05-20T05:33:09.935Z,15.40
2019-05-20T05:35:52.294Z,14.13
2019-05-20T05:38:09.009Z,10.97
2019-05-20T05:40:37.650Z,9.83
2019-05-20T05:43:06.220Z,10.23
2019-05-20T05:45:35.442Z,10.20
2019-05-20T05:48:04.414Z,12.20
2019-05-20T05:50:33.150Z,11.70
2019-05-20T05:53:01.745Z,9.83
2019-05-20T05:55:30.444Z,9.63
2019-05-20T05:57:59.021Z,9.50
2019-05-20T06:00:27.842Z,9.23
2019-05-20T06:02:56.486Z,9.30
2019-05-20T06:05:25.141Z,9.13
2019-05-20T06:07:53.707Z,10.60
2019-05-20T06:10:22.394Z,9.97
2019-05-20T06:12:51.153Z,9.60
2019-05-20T06:15:20.621Z,7.83
2019-05-20T06:17:49.630Z,10.20
2019-05-20T06:20:20.196Z,9.10
2019-05-20T06:22:48.783Z,9.20
2019-05-20T06:25:17.783Z,10.00
2019-05-20T06:27:46.421Z,10.20
2019-05-20T06:30:16.774Z,9.90
2019-05-20T06:32:45.602Z,9.10
2019-05-20T06:35:15.933Z,10.37
2019-05-20T06:37:46.689Z,9.00
2019-05-20T06:40:16.255Z,10.33
2019-05-20T06:42:44.926Z,11.10
2019-05-20T06:45:13.761Z,11.23
2019-05-20T06:47:42.386Z,9.93
2019-05-20T06:50:12.326Z,10.80
2019-05-20T06:52:40.975Z,10.57
2019-05-20T06:55:09.926Z,9.10
2019-05-20T06:57:38.526Z,9.70
2019-05-20T07:00:08.539Z,9.20
2019-05-20T07:02:37.233Z,9.90
2019-05-20T07:05:07.624Z,10.20
2019-05-20T07:07:36.363Z,9.30
2019-05-20T07:10:07.603Z,8.80
2019-05-20T07:12:41.049Z,9.60
2019-05-20T07:15:08.235Z,9.87
2019-05-20T07:17:36.861Z,10.33
2019-05-20T07:20:08.461Z,9.60
2019-05-20T07:22:54.533Z,10.47
2019-05-20T07:25:08.264Z,9.97
2019-05-20T07:27:36.907Z,9.77
2019-05-20T07:30:09.346Z,9.67
2019-05-20T07:32:38.149Z,9.90
2019-05-20T07:35:07.698Z,9.23
2019-05-20T07:37:36.300Z,10.43
2019-05-20T07:40:06.064Z,9.80
2019-05-20T07:42:34.665Z,9.60
2019-05-20T07:45:03.426Z,10.00
2019-05-20T07:47:32.430Z,9.07
2019-05-20T07:50:01.262Z,9.90
2019-05-20T07:52:30.295Z,10.37
2019-05-20T07:55:00.161Z,9.73
2019-05-20T07:57:31.923Z,9.67
2019-05-20T08:00:00.990Z,8.83
2019-05-20T08:02:30.662Z,8.93
2019-05-20T08:04:59.266Z,9.40
2019-05-20T08:07:49.915Z,10.17
2019-05-20T08:09:58.386Z,9.43
2019-05-20T08:12:27.106Z,9.90
2019-05-20T08:14:55.766Z,10.90
2019-05-20T08:17:24.987Z,10.80
2019-05-20T08:19:53.591Z,10.50
2019-05-20T08:22:22.255Z,10.97
2019-05-20T08:24:50.953Z,13.60
2019-05-20T08:27:19.809Z,11.57
2019-05-20T08:29:48.392Z,10.77
2019-05-20T08:32:17.030Z,10.83
2019-05-20T08:34:45.620Z,11.53
2019-05-20T08:37:14.269Z,11.33
2019-05-20T08:39:42.921Z,11.80
2019-05-20T08:42:11.576Z,9.70
2019-05-20T08:44:40.146Z,10.10
2019-05-20T08:47:08.903Z,9.07
2019-05-20T08:49:37.658Z,10.50
2019-05-20T08:52:06.708Z,9.80
2019-05-20T08:54:35.413Z,9.80
2019-05-20T08:57:04.079Z,10.43
2019-05-20T08:59:32.733Z,10.07
2019-05-20T09:02:01.361Z,9.30
2019-05-20T09:04:29.963Z,7.70
2019-05-20T09:07:00.982Z,9.20
2019-05-20T09:09:29.876Z,8.03
2019-05-20T09:11:59.150Z,8.40
2019-05-20T09:14:27.907Z,8.30
2019-05-20T09:16:56.707Z,8.67
2019-05-20T09:19:25.304Z,7.73
2019-05-20T09:21:53.944Z,10.13
2019-05-20T09:24:22.808Z,9.43
2019-05-20T09:26:51.414Z,9.80
2019-05-20T09:29:20.030Z,12.47
2019-05-20T09:31:48.733Z,9.40
2019-05-20T09:34:17.392Z,9.50
2019-05-20T09:36:46.111Z,9.80
2019-05-20T09:39:14.740Z,8.93
2019-05-20T09:41:43.336Z,9.80
2019-05-20T09:44:12.084Z,9.10
2019-05-20T09:46:40.946Z,7.30
2019-05-20T09:49:09.589Z,5.97
2019-05-20T09:51:38.181Z,5.80
2019-05-20T09:54:06.891Z,6.23
2019-05-20T09:56:35.577Z,6.63
2019-05-20T09:59:04.153Z,6.60
2019-05-20T10:01:32.849Z,6.40
2019-05-20T10:04:01.429Z,5.90
2019-05-20T10:06:30.153Z,6.30
2019-05-20T10:08:58.868Z,4.87
2019-05-20T10:11:27.533Z,5.80
2019-05-20T10:13:56.140Z,4.40
2019-05-20T10:16:24.761Z,4.80
2019-05-20T10:18:55.490Z,7.77
2019-05-20T10:21:23.665Z,8.40
2019-05-20T10:23:52.511Z,6.17
2019-05-20T10:26:21.318Z,4.57
2019-05-20T10:28:49.903Z,5.30
2019-05-20T10:31:19.094Z,5.80
2019-05-20T10:33:48.261Z,5.42
2019-05-20T10:36:17.440Z,5.45
2019-05-20T10:38:58.083Z,5.45
2019-05-20T10:41:17.528Z,4.80
2019-05-20T10:43:46.752Z,5.17
2019-05-20T10:46:15.979Z,6.00
2019-05-20T10:48:44.631Z,6.20
2019-05-20T10:51:13.215Z,9.40
2019-05-20T10:53:41.994Z,6.17
2019-05-20T10:56:10.895Z,7.93
2019-05-20T10:58:39.857Z,5.67
2019-05-20T11:01:08.532Z,6.67
2019-05-20T11:03:37.124Z,7.30
2019-05-20T11:06:05.992Z,6.80
2019-05-20T11:08:34.699Z,7.03
2019-05-20T11:11:03.371Z,9.07
2019-05-20T11:13:31.972Z,7.23
2019-05-20T11:16:00.664Z,7.10
2019-05-20T11:18:29.262Z,6.60
2019-05-20T11:20:57.846Z,6.10
2019-05-20T11:23:26.467Z,7.53
2019-05-20T11:25:55.051Z,5.97
2019-05-20T11:28:23.635Z,6.50
2019-05-20T11:30:52.258Z,6.40
2019-05-20T11:33:20.840Z,7.03
2019-05-20T11:35:49.478Z,6.97
2019-05-20T11:38:18.085Z,5.80
2019-05-20T11:40:47.130Z,5.53
2019-05-20T11:43:15.714Z,5.43
2019-05-20T11:45:44.454Z,6.17
2019-05-20T11:48:13.018Z,5.67
2019-05-20T11:50:41.599Z,5.30
2019-05-20T11:53:10.333Z,6.07
2019-05-20T11:55:38.910Z,8.13
2019-05-20T11:58:15.858Z,5.20
2019-05-20T12:00:37.961Z,6.10
2019-05-20T12:03:06.552Z,5.83
2019-05-20T12:05:35.126Z,6.13
2019-05-20T12:08:03.820Z,5.70
2019-05-20T12:10:32.400Z,5.80
2019-05-20T12:13:00.977Z,5.97
2019-05-20T12:15:29.620Z,6.07
2019-05-20T12:17:58.221Z,5.57
2019-05-20T12:20:26.763Z,5.70
2019-05-20T12:22:55.426Z,6.00
2019-05-20T12:25:24.049Z,6.00
2019-05-20T12:27:53.498Z,6.20
2019-05-20T12:30:22.370Z,5.00
2019-05-20T12:32:50.971Z,6.10
2019-05-20T12:35:19.765Z,6.10
2019-05-20T12:37:48.397Z,5.60
2019-05-20T12:40:17.115Z,5.70
2019-05-20T12:42:45.699Z,5.07
2019-05-20T12:45:14.660Z,5.60
2019-05-20T12:47:44.116Z,5.10
2019-05-20T12:50:13.522Z,5.10
2019-05-20T12:52:42.152Z,7.00
2019-05-20T12:55:11.061Z,6.80
2019-05-20T12:57:39.777Z,6.80
2019-05-20T13:00:11.971Z,5.33
2019-05-20T13:02:42.100Z,7.20
2019-05-20T13:05:11.350Z,6.33
2019-05-20T13:07:40.141Z,6.30
2019-05-20T13:10:26.546Z,6.37
2019-05-20T13:12:40.127Z,5.90
2019-05-20T13:15:10.093Z,6.23
2019-05-20T13:17:43.766Z,5.83
2019-05-20T13:20:10.780Z,6.63
2019-05-20T13:22:39.393Z,5.80
2019-05-20T13:25:08.198Z,6.27
2019-05-20T13:27:36.847Z,5.73
2019-05-20T13:30:07.812Z,7.97
2019-05-20T13:32:36.464Z,6.80
2019-05-20T13:35:06.886Z,5.73
2019-05-20T13:37:35.514Z,5.87
2019-05-20T13:40:06.046Z,6.13
2019-05-20T13:42:34.680Z,5.63
2019-05-20T13:45:03.625Z,5.50
2019-05-20T13:47:32.269Z,6.20
2019-05-20T13:50:00.861Z,5.60
2019-05-20T13:52:29.549Z,6.00
2019-05-20T13:54:58.132Z,5.77
2019-05-20T13:57:26.786Z,6.50
2019-05-20T13:59:55.952Z,6.07
2019-05-20T14:02:24.531Z,3.20
2019-05-20T14:04:53.117Z,3.43
2019-05-20T14:07:22.043Z,2.80
2019-05-20T14:09:50.624Z,3.73
2019-05-20T14:12:19.270Z,4.73
2019-05-20T14:14:48.233Z,10.00
2019-05-20T14:17:17.036Z,4.53
2019-05-20T14:19:45.958Z,6.27
2019-05-20T14:22:14.742Z,6.70
2019-05-20T14:24:43.617Z,6.70
2019-05-20T14:27:12.448Z,4.43
2019-05-20T14:29:41.238Z,10.87
2019-05-20T14:32:09.894Z,9.70
2019-05-20T14:34:38.475Z,9.93
2019-05-20T14:37:07.110Z,10.10
2019-05-20T14:39:35.861Z,5.07
2019-05-20T14:42:04.510Z,4.27
2019-05-20T14:44:33.197Z,3.87
2019-05-20T14:47:01.894Z,3.80
2019-05-20T14:49:30.556Z,4.43
2019-05-20T14:51:59.188Z,13.47
2019-05-20T14:54:27.769Z,5.63
2019-05-20T14:56:56.349Z,4.80
2019-05-20T14:59:24.969Z,4.40
2019-05-20T15:01:53.761Z,4.33
2019-05-20T15:04:22.461Z,5.17
2019-05-20T15:06:51.074Z,5.60
2019-05-20T15:09:19.660Z,5.27
2019-05-20T15:11:48.236Z,7.43
2019-05-20T15:14:16.858Z,6.40
2019-05-20T15:16:45.500Z,5.70
2019-05-20T15:19:16.653Z,6.53
2019-05-20T15:21:45.233Z,6.63
2019-05-20T15:24:13.899Z,9.27
2019-05-20T15:26:42.784Z,6.97
2019-05-20T15:29:27.060Z,6.87
2019-05-20T15:31:42.005Z,7.63
2019-05-20T15:34:11.310Z,6.33
2019-05-20T15:36:40.129Z,7.27
2019-05-20T15:39:08.867Z,6.63
2019-05-20T15:41:37.455Z,8.80
2019-05-20T15:44:06.204Z,7.50
2019-05-20T15:46:34.790Z,6.87
2019-05-20T15:49:03.441Z,6.10
2019-05-20T15:51:32.086Z,5.80
2019-05-20T15:54:00.648Z,6.93
2019-05-20T15:56:29.248Z,7.43
2019-05-20T15:58:57.877Z,5.37
2019-05-20T16:01:26.462Z,7.30
2019-05-20T16:03:55.107Z,7.50
2019-05-20T16:06:23.800Z,7.43
2019-05-20T16:08:52.385Z,6.57
2019-05-20T16:11:20.971Z,6.60
2019-05-20T16:13:49.600Z,7.23
2019-05-20T16:16:18.188Z,6.83
2019-05-20T16:18:46.772Z,6.97
2019-05-20T16:21:15.472Z,8.30
2019-05-20T16:23:44.055Z,6.93
2019-05-20T16:26:12.707Z,6.53
2019-05-20T16:28:41.410Z,6.77
2019-05-20T16:31:11.883Z,4.77
2019-05-20T16:33:40.515Z,6.60
2019-05-20T16:36:09.109Z,4.77
2019-05-20T16:38:37.793Z,5.70
2019-05-20T16:41:06.369Z,7.30
2019-05-20T16:43:35.159Z,5.80
2019-05-20T16:46:03.839Z,5.80
2019-05-20T16:48:32.431Z,12.50
2019-05-20T16:51:01.144Z,6.30
2019-05-20T16:53:29.803Z,5.30
2019-05-20T16:55:58.461Z,5.83
2019-05-20T16:58:27.276Z,5.60
2019-05-20T17:00:55.873Z,6.70
2019-05-20T17:03:24.449Z,6.43
2019-05-20T17:05:53.073Z,7.10
2019-05-20T17:08:21.664Z,9.60
2019-05-20T17:10:51.783Z,6.60
2019-05-20T17:13:20.680Z,5.80
2019-05-20T17:18:44.275Z,6.30
2019-05-20T17:21:12.933Z,5.40
2019-05-20T17:23:41.521Z,5.63
2019-05-20T17:26:10.147Z,7.43
2019-05-20T17:28:38.731Z,6.20
2019-05-20T17:31:07.385Z,7.57
2019-05-20T17:33:36.083Z,7.47
2019-05-20T17:36:04.817Z,11.60
2019-05-20T17:38:33.391Z,5.80
2019-05-20T17:41:02.017Z,5.03
2019-05-20T17:43:30.757Z,5.47
2019-05-20T17:45:59.396Z,5.67
2019-05-20T17:48:28.020Z,7.70
2019-05-20T17:50:56.642Z,6.77
2019-05-20T17:53:25.200Z,6.97
2019-05-20T17:55:53.811Z,6.50
2019-05-20T17:58:22.388Z,5.57
2019-05-20T18:00:51.202Z,5.80
2019-05-20T18:03:19.903Z,5.90
2019-05-20T18:05:48.484Z,5.60
2019-05-20T18:08:17.095Z,5.60
2019-05-20T18:10:45.714Z,5.17
2019-05-20T18:13:14.570Z,6.03
2019-05-20T18:15:43.231Z,8.53
2019-05-20T18:18:11.868Z,7.73
2019-05-20T18:20:40.456Z,6.27
2019-05-20T18:23:09.112Z,6.47
2019-05-20T18:25:37.751Z,6.10
2019-05-20T18:28:06.423Z,6.70
2019-05-20T18:30:35.240Z,6.53
2019-05-20T18:33:03.872Z,5.87
2019-05-20T18:35:32.500Z,6.93
2019-05-20T18:38:01.087Z,6.80
2019-05-20T18:40:29.701Z,5.67
2019-05-20T18:42:58.278Z,4.67
2019-05-20T18:45:27.341Z,6.50
2019-05-20T18:47:55.982Z,5.90
2019-05-20T18:50:24.562Z,6.50
2019-05-20T18:52:53.225Z,8.70
2019-05-20T18:55:21.889Z,6.27
2019-05-20T18:57:50.476Z,4.10
2019-05-20T19:00:19.560Z,4.57
2019-05-20T19:02:48.191Z,3.33
2019-05-20T19:05:16.902Z,4.30
2019-05-20T19:07:46.347Z,4.50
2019-05-20T19:10:15.279Z,3.60
2019-05-20T19:12:43.862Z,3.80
2019-05-20T19:15:12.957Z,3.17
2019-05-20T19:17:43.085Z,3.00
2019-05-20T19:20:11.800Z,3.33
2019-05-20T19:22:40.452Z,3.23
2019-05-20T19:25:09.374Z,3.33
2019-05-20T19:27:37.978Z,2.60
2019-05-20T19:30:08.603Z,3.93
2019-05-20T19:32:37.227Z,2.83
2019-05-20T19:35:08.117Z,2.63
2019-05-20T19:37:37.408Z,3.17
2019-05-20T19:40:07.676Z,4.30
2019-05-20T19:42:36.788Z,2.83
2019-05-20T19:45:06.104Z,2.80
2019-05-20T19:47:35.145Z,2.97
2019-05-20T19:50:05.706Z,2.70
2019-05-20T19:52:34.362Z,3.20
2019-05-20T19:55:03.055Z,3.70
2019-05-20T19:57:31.982Z,4.10
2019-05-20T20:00:00.560Z,3.40
2019-05-20T20:02:29.165Z,2.70
2019-05-20T20:04:57.748Z,3.40
2019-05-20T20:07:28.784Z,5.20
2019-05-20T20:09:56.672Z,4.17
2019-05-20T20:12:25.325Z,3.73
2019-05-20T20:14:53.904Z,3.50
2019-05-20T20:17:22.570Z,4.13
2019-05-20T20:19:51.185Z,3.40
2019-05-20T20:22:19.763Z,3.17
2019-05-20T20:24:48.377Z,4.20
2019-05-20T20:27:17.037Z,3.60
2019-05-20T20:29:45.797Z,4.20
2019-05-20T20:32:14.412Z,3.37
2019-05-20T20:34:42.997Z,4.37
2019-05-20T20:37:11.572Z,2.87
2019-05-20T20:39:40.194Z,2.87
2019-05-20T20:42:08.847Z,3.40
2019-05-20T20:44:37.673Z,3.90
2019-05-20T20:47:06.368Z,2.80
2019-05-20T20:49:34.938Z,3.10
2019-05-20T20:52:03.692Z,3.13
2019-05-20T20:54:32.508Z,3.47
2019-05-20T20:57:01.139Z,2.93
2019-05-20T20:59:29.741Z,3.47
2019-05-20T21:01:59.228Z,2.93
2019-05-20T21:04:28.125Z,3.73
2019-05-20T21:06:56.709Z,3.40
2019-05-20T21:09:25.334Z,3.70
2019-05-20T21:11:53.980Z,3.13
2019-05-20T21:14:22.556Z,2.73
2019-05-20T21:16:51.175Z,4.07
2019-05-20T21:19:19.749Z,3.83
2019-05-20T21:21:48.324Z,2.93
2019-05-20T21:24:16.935Z,3.20
2019-05-20T21:26:45.577Z,3.23
2019-05-20T21:29:14.200Z,3.77
2019-05-20T21:31:42.787Z,3.80
2019-05-20T21:34:11.363Z,4.47
2019-05-20T21:36:47.789Z,3.83
2019-05-20T21:39:10.292Z,3.10
2019-05-20T21:41:39.100Z,3.50
2019-05-20T21:44:07.712Z,3.23
2019-05-20T21:46:36.315Z,2.27
2019-05-20T21:49:04.958Z,3.50
2019-05-20T21:51:33.535Z,3.10
2019-05-20T21:54:02.163Z,3.27
2019-05-20T21:56:30.741Z,3.30
2019-05-20T21:58:59.323Z,3.37
2019-05-20T22:01:28.405Z,3.60
2019-05-20T22:03:56.983Z,2.70
2019-05-20T22:06:25.559Z,2.73
2019-05-20T22:08:54.179Z,2.80
2019-05-20T22:11:22.751Z,2.73
2019-05-20T22:13:51.330Z,2.50
2019-05-20T22:16:19.971Z,2.40
2019-05-20T22:18:48.529Z,2.43
2019-05-20T22:21:18.819Z,2.13
2019-05-20T22:23:49.078Z,2.90
2019-05-20T22:26:17.647Z,3.07
2019-05-20T22:28:46.292Z,3.00
2019-05-20T22:31:14.984Z,2.33
2019-05-20T22:33:43.567Z,2.40
2019-05-20T22:36:12.157Z,3.00
2019-05-20T22:38:40.917Z,2.30
2019-05-20T22:41:09.567Z,2.30
2019-05-20T22:43:38.149Z,2.30
2019-05-20T22:46:06.765Z,2.70
2019-05-20T22:48:35.343Z,2.47
2019-05-20T22:51:03.990Z,2.40
2019-05-20T22:53:32.735Z,2.20
2019-05-20T22:56:01.323Z,1.83
2019-05-20T22:58:29.905Z,2.90
2019-05-20T23:00:58.597Z,2.13
2019-05-20T23:03:27.171Z,1.87
2019-05-20T23:05:55.743Z,2.00
2019-05-20T23:08:24.358Z,2.40
2019-05-20T23:10:53.028Z,1.80
2019-05-20T23:13:21.593Z,1.70
2019-05-20T23:15:50.211Z,1.73
2019-05-20T23:18:18.819Z,1.87
2019-05-20T23:20:47.516Z,1.57
2019-05-20T23:23:16.140Z,1.23
2019-05-20T23:25:44.720Z,1.33
2019-05-20T23:28:13.381Z,1.40
2019-05-20T23:30:42.265Z,1.43
2019-05-20T23:33:10.858Z,1.40
2019-05-20T23:35:39.437Z,1.90
2019-05-20T23:38:08.048Z,1.30
2019-05-20T23:40:36.631Z,1.80
2019-05-20T23:43:05.210Z,1.67
2019-05-20T23:45:33.836Z,1.83
2019-05-20T23:48:02.416Z,2.17
2019-05-20T23:50:31.000Z,1.67
2019-05-20T23:52:59.623Z,1.80
2019-05-20T23:55:28.267Z,1.47
2019-05-20T23:57:56.847Z,1.50
